Time;durP1;ratioP1;P1;durP2;ratioP2;P2;SDS_P1;SDS_P2;PMS_P1;PMS_P2;Temp;Humidity;BMP_temperature;BMP_pressure;BME280_temperature;BME280_humidity;BME280_pressure;Samples;Min_cycle;Max_cycle;Signal;HPM_P1;HPM_P2
2021/01/14 00:02:23;;;;;;;3.47;2.97;;;;;;;2.46;100.00;95710.56;5001395;28;20433;-51
2021/01/14 00:04:51;;;;;;;2.90;2.33;;;;;;;2.48;100.00;95721.66;5000105;28;20502;-53
2021/01/14 00:07:19;;;;;;;3.53;2.45;;;;;;;2.42;100.00;95717.75;4996730;28;20459;-52
2021/01/14 00:09:46;;;;;;;3.20;2.60;;;;;;;2.48;100.00;95721.66;4994875;28;20482;-53
2021/01/14 00:12:13;;;;;;;2.50;1.93;;;;;;;2.36;100.00;95719.03;4996208;28;20463;-56
2021/01/14 00:14:40;;;;;;;3.03;2.20;;;;;;;2.35;100.00;95722.59;4993141;28;20507;-53
2021/01/14 00:17:07;;;;;;;3.13;2.30;;;;;;;2.31;100.00;95721.16;4996421;28;20467;-52
2021/01/14 00:19:33;;;;;;;4.00;2.95;;;;;;;2.37;100.00;95723.31;4996640;28;20456;-53
2021/01/14 00:22:01;;;;;;;4.53;3.83;;;;;;;2.46;100.00;95737.41;4999148;28;20483;-52
2021/01/14 00:24:28;;;;;;;5.53;4.47;;;;;;;2.48;100.00;95745.09;4993667;28;20978;-55
2021/01/14 00:26:55;;;;;;;6.32;5.05;;;;;;;2.35;100.00;95740.78;4999051;28;20428;-53
2021/01/14 00:29:22;;;;;;;7.13;5.50;;;;;;;2.20;100.00;95744.50;4998748;28;20446;-53
2021/01/14 00:31:49;;;;;;;4.88;4.00;;;;;;;2.15;100.00;95749.22;4999406;28;20433;-53
2021/01/14 00:34:16;;;;;;;5.88;4.53;;;;;;;2.18;100.00;95751.59;4998713;28;20884;-52
2021/01/14 00:39:29;;;;;;;8.18;5.75;;;;;;;2.15;100.00;95759.63;4997135;28;20412;-51
2021/01/14 00:41:56;;;;;;;6.38;5.03;;;;;;;2.14;100.00;95758.78;4987353;28;21275;-53
2021/01/14 00:44:23;;;;;;;5.87;4.20;;;;;;;2.35;100.00;95755.59;4997968;28;20511;-52
2021/01/14 00:46:54;;;;;;;5.85;4.90;;;;;;;2.27;100.00;95768.28;4996282;28;20784;-48
2021/01/14 00:49:21;;;;;;;5.15;4.10;;;;;;;2.30;100.00;95757.66;4995212;28;20421;-53
2021/01/14 00:51:49;;;;;;;4.80;3.70;;;;;;;2.36;100.00;95759.84;4991114;28;20437;-50
2021/01/14 00:54:16;;;;;;;6.97;5.20;;;;;;;2.35;100.00;95748.59;4994620;28;20433;-51
2021/01/14 00:56:44;;;;;;;6.18;4.43;;;;;;;2.29;100.00;95766.41;4986757;28;20471;-50
2021/01/14 00:59:11;;;;;;;7.40;5.20;;;;;;;2.29;100.00;95767.25;4998906;28;20424;-51
2021/01/14 01:01:40;;;;;;;7.57;5.70;;;;;;;2.29;100.00;95761.22;4993174;28;20421;-48
2021/01/14 01:04:07;;;;;;;6.13;4.53;;;;;;;2.28;100.00;95754.38;4996150;28;20451;-50
2021/01/14 01:06:36;;;;;;;5.88;4.10;;;;;;;2.26;100.00;95756.25;4986912;28;20511;-49
2021/01/14 01:09:07;;;;;;;5.43;3.92;;;;;;;2.20;100.00;95743.66;5000997;28;20422;-53
2021/01/14 01:11:35;;;;;;;3.65;2.28;;;;;;;2.23;100.00;95749.47;4993820;28;20419;-53
2021/01/14 01:14:03;;;;;;;3.30;2.45;;;;;;;2.22;100.00;95744.41;4989862;28;20825;-53
2021/01/14 01:16:30;;;;;;;5.90;4.25;;;;;;;2.20;100.00;95741.06;5002386;28;20524;-56
2021/01/14 01:18:58;;;;;;;5.53;3.83;;;;;;;2.17;100.00;95759.50;5001222;28;20838;-56
2021/01/14 01:21:24;;;;;;;6.65;5.30;;;;;;;2.17;100.00;95756.88;5001534;28;20452;-52
2021/01/14 01:23:51;;;;;;;5.30;3.88;;;;;;;2.20;100.00;95772.28;5000931;28;20436;-51
2021/01/14 01:26:20;;;;;;;6.95;4.95;;;;;;;2.19;100.00;95781.84;5004000;28;20946;-50
2021/01/14 01:28:47;;;;;;;3.88;2.55;;;;;;;2.22;100.00;95786.00;4992440;28;20504;-50
2021/01/14 01:31:15;;;;;;;4.13;2.58;;;;;;;2.17;100.00;95791.56;4999175;28;20436;-50
2021/01/14 01:33:43;;;;;;;4.30;3.10;;;;;;;2.20;100.00;95796.50;4994317;28;20522;-51
2021/01/14 01:36:13;;;;;;;4.38;3.22;;;;;;;2.13;100.00;95811.75;4999682;28;20418;-51
2021/01/14 01:38:41;;;;;;;4.10;2.53;;;;;;;2.13;100.00;95788.34;4997333;28;21137;-52
2021/01/14 01:41:08;;;;;;;5.25;3.70;;;;;;;2.13;99.92;95790.09;4995439;28;20485;-49
2021/01/14 01:43:35;;;;;;;5.28;3.60;;;;;;;2.13;99.82;95766.69;5000305;28;20425;-50
2021/01/14 01:46:04;;;;;;;5.55;3.72;;;;;;;2.02;99.37;95790.84;4993932;28;20426;-50
2021/01/14 01:48:32;;;;;;;4.75;2.78;;;;;;;2.11;97.81;95799.78;5000684;28;20490;-50
2021/01/14 01:51:01;;;;;;;4.00;2.53;;;;;;;2.11;96.55;95782.41;4993073;28;20449;-54
2021/01/14 01:53:28;;;;;;;3.83;2.55;;;;;;;2.09;95.64;95767.84;4995918;28;20525;-50
2021/01/14 01:55:55;;;;;;;3.28;2.65;;;;;;;2.16;94.48;95760.44;4997239;28;20425;-55
2021/01/14 01:58:22;;;;;;;3.35;2.13;;;;;;;2.16;93.84;95756.06;4995017;28;20509;-49
2021/01/14 02:00:49;;;;;;;3.40;2.40;;;;;;;2.15;93.73;95757.00;5004972;28;20421;-54
2021/01/14 02:03:17;;;;;;;4.07;2.75;;;;;;;2.11;94.44;95738.22;5003763;28;20435;-48
2021/01/14 02:05:45;;;;;;;4.50;3.00;;;;;;;2.16;94.61;95750.03;4994861;28;20434;-58
2021/01/14 02:08:19;;;;;;;3.30;2.22;;;;;;;2.13;93.58;95754.53;4996807;28;20427;-51
2021/01/14 02:10:53;;;;;;;3.08;2.33;;;;;;;2.14;94.39;95764.00;5000674;28;20405;-53
2021/01/14 02:13:28;;;;;;;3.50;2.25;;;;;;;2.13;94.87;95759.75;4998548;28;21040;-55
2021/01/14 02:15:58;;;;;;;3.20;2.30;;;;;;;2.13;95.49;95758.88;4998615;28;20916;-53
2021/01/14 02:18:25;;;;;;;4.27;3.13;;;;;;;2.12;96.97;95767.63;4997290;28;20420;-55
2021/01/14 02:20:56;;;;;;;2.90;2.40;;;;;;;2.08;96.79;95768.81;4993778;28;20882;-54
2021/01/14 02:23:27;;;;;;;4.53;3.28;;;;;;;2.10;97.24;95770.34;5000154;28;20431;-55
2021/01/14 02:26:02;;;;;;;3.78;3.05;;;;;;;2.10;97.93;95767.75;4987273;28;20929;-52
2021/01/14 02:28:30;;;;;;;5.45;3.30;;;;;;;2.09;98.48;95776.47;4993401;28;20430;-50
2021/01/14 02:30:57;;;;;;;3.35;2.30;;;;;;;2.08;98.51;95761.81;4992482;28;20436;-53
2021/01/14 02:33:23;;;;;;;4.13;3.05;;;;;;;2.14;98.91;95771.78;4994403;28;20479;-54
2021/01/14 02:35:50;;;;;;;5.37;3.57;;;;;;;2.13;99.47;95782.28;4993595;28;20427;-48
2021/01/14 02:38:17;;;;;;;5.47;3.70;;;;;;;2.13;99.62;95783.16;4995712;28;20973;-55
2021/01/14 02:40:44;;;;;;;4.45;3.30;;;;;;;2.18;99.67;95784.59;4997212;28;20814;-50
2021/01/14 02:43:12;;;;;;;4.90;2.83;;;;;;;2.22;99.47;95791.22;4996472;28;21172;-50
2021/01/14 02:45:40;;;;;;;2.88;2.15;;;;;;;2.26;98.97;95788.28;4996755;28;20421;-53
2021/01/14 02:48:08;;;;;;;4.53;3.42;;;;;;;2.26;99.49;95780.47;4995503;28;20442;-48
2021/01/14 02:50:39;;;;;;;2.88;2.08;;;;;;;2.23;99.57;95778.09;5000799;28;20428;-52
2021/01/14 02:53:07;;;;;;;3.05;2.17;;;;;;;2.24;100.00;95795.38;4994598;28;20424;-50
2021/01/14 02:55:36;;;;;;;2.97;2.00;;;;;;;2.28;98.92;95791.63;4994957;28;24805;-53
2021/01/14 02:58:03;;;;;;;4.35;2.72;;;;;;;2.27;98.84;95789.97;4999430;28;21010;-50
2021/01/14 03:00:31;;;;;;;3.20;2.10;;;;;;;2.14;100.00;95789.16;4990330;28;20518;-50
2021/01/14 03:02:58;;;;;;;3.45;1.98;;;;;;;2.10;100.00;95782.53;4988557;28;20427;-53
2021/01/14 03:05:25;;;;;;;3.90;2.90;;;;;;;2.08;100.00;95780.03;4995677;28;20408;-49
2021/01/14 03:07:51;;;;;;;;;;;;;;;2.13;100.00;95793.56;4992474;28;20422;-54
2021/01/14 03:10:18;;;;;;;;;;;;;;;2.19;99.95;95794.03;5000968;28;19925;-52
2021/01/14 03:12:45;;;;;;;;;;;;;;;2.17;99.28;95803.72;4996216;28;19934;-49
2021/01/14 03:15:12;;;;;;;;;;;;;;;2.19;97.28;95807.03;4996276;28;20012;-51
2021/01/14 03:17:40;;;;;;;;;;;;;;;2.18;96.71;95814.03;4991865;28;19930;-54
2021/01/14 03:20:08;;;;;;;;;;;;;;;2.06;97.05;95810.50;4999949;28;19964;-51
2021/01/14 03:22:37;;;;;;;;;;;;;;;2.11;96.32;95811.03;4995347;28;20002;-53
2021/01/14 03:25:06;;;;;;;;;;;;;;;2.10;96.23;95811.16;4995497;28;19944;-54
2021/01/14 03:27:35;;;;;;;;;;;;;;;2.08;95.68;95819.03;5000412;28;19932;-55
2021/01/14 03:30:02;;;;;;;;;;;;;;;2.01;95.76;95822.19;4998728;28;20012;-53
2021/01/14 03:32:29;;;;;;;;;;;;;;;2.05;95.11;95821.03;4992936;28;20012;-50
2021/01/14 03:34:57;;;;;;;;;;;;;;;2.02;94.38;95821.22;4997831;28;19932;-52
2021/01/14 03:37:24;;;;;;;;;;;;;;;1.99;94.01;95824.06;4996816;28;20404;-50
2021/01/14 03:39:50;;;;;;;;;;;;;;;2.09;93.40;95830.25;4994247;28;19929;-54
2021/01/14 03:42:18;;;;;;;;;;;;;;;2.08;93.57;95839.84;5000148;28;20020;-52
2021/01/14 03:44:45;;;;;;;;;;;;;;;2.02;93.72;95842.03;4996035;28;19926;-53
2021/01/14 03:47:12;;;;;;;;;;;;;;;2.07;94.35;95864.19;4998740;28;19996;-55
2021/01/14 03:49:39;;;;;;;;;;;;;;;2.02;93.24;95850.66;4990950;28;19934;-49
2021/01/14 03:52:08;;;;;;;;;;;;;;;2.08;91.33;95833.81;5002314;28;19925;-55
2021/01/14 03:54:35;;;;;;;;;;;;;;;2.08;92.40;95855.44;4995361;28;19930;-52
2021/01/14 03:57:02;;;;;;;;;;;;;;;2.08;91.31;95846.81;4989565;28;20463;-51
2021/01/14 03:59:29;;;;;;;;;;;;;;;2.06;91.82;95859.09;5000114;28;20403;-52
2021/01/14 04:01:58;;;;;;;;;;;;;;;2.04;92.00;95869.59;5000012;28;20022;-49
2021/01/14 04:04:25;;;;;;;;;;;;;;;2.00;92.61;95860.34;4995392;28;19929;-48
2021/01/14 04:06:52;;;;;;;;;;;;;;;2.02;93.64;95861.06;4999974;28;20016;-51
2021/01/14 04:09:20;;;;;;;;;;;;;;;1.93;93.09;95851.31;4998285;28;19926;-50
2021/01/14 04:11:50;;;;;;;;;;;;;;;2.04;93.89;95861.81;5002373;28;20343;-54
2021/01/14 04:14:17;;;;;;;;;;;;;;;2.00;94.68;95862.97;4991495;28;19926;-55
2021/01/14 04:16:43;;;;;;;;;;;;;;;1.93;95.46;95874.72;4991729;28;19926;-54
2021/01/14 04:19:10;;;;;;;;;;;;;;;1.84;95.80;95880.56;4999473;28;20024;-54
2021/01/14 04:21:37;;;;;;;;;;;;;;;1.80;97.74;95876.50;5014513;28;19957;-53
2021/01/14 04:24:04;;;;;;;;;;;;;;;1.83;98.26;95878.91;4998957;28;20009;-51
2021/01/14 04:26:32;;;;;;;;;;;;;;;1.82;98.08;95877.22;4992063;28;19933;-52
2021/01/14 04:28:59;;;;;;;;;;;;;;;1.90;97.73;95893.97;5000511;28;19944;-53
2021/01/14 04:31:25;;;;;;;;;;;;;;;1.79;99.46;95899.06;4993947;28;19972;-55
2021/01/14 04:34:01;;;;;;;;;;;;;;;1.67;100.00;95898.13;5003269;28;20024;-55
2021/01/14 04:36:27;;;;;;;;;;;;;;;1.57;100.00;95909.25;4996219;28;19964;-50
2021/01/14 04:38:54;;;;;;;;;;;;;;;1.54;100.00;95909.44;5001318;28;19965;-50
2021/01/14 04:41:21;;;;;;;;;;;;;;;1.56;100.00;95903.22;4990301;28;19930;-54
2021/01/14 04:43:49;;;;;;;;;;;;;;;1.62;100.00;95907.19;4995128;28;20020;-50
2021/01/14 04:46:16;;;;;;;;;;;;;;;1.71;100.00;95909.13;4996167;28;20516;-54
2021/01/14 04:48:43;;;;;;;;;;;;;;;1.73;96.63;95909.88;4999116;28;19965;-54
2021/01/14 04:51:10;;;;;;;;;;;;;;;1.78;95.25;95919.94;4995146;28;20384;-52
2021/01/14 04:53:37;;;;;;;;;;;;;;;1.79;93.89;95906.88;5004016;28;19944;-52
2021/01/14 04:56:06;;;;;;;;;;;;;;;1.83;93.80;95910.09;4991727;28;19945;-52
2021/01/14 04:58:33;;;;;;;;;;;;;;;1.80;93.25;95911.13;4995462;28;19926;-48
2021/01/14 05:01:00;;;;;;;;;;;;;;;1.78;94.20;95923.38;5004338;28;19933;-51
2021/01/14 05:03:28;;;;;;;;;;;;;;;1.71;94.25;95929.94;4998558;28;19925;-48
2021/01/14 05:05:55;;;;;;;;;;;;;;;1.82;94.90;95937.00;5002355;28;19961;-51
2021/01/14 05:08:26;;;;;;;;;;;;;;;1.63;95.58;95908.84;4993652;28;19926;-54
2021/01/14 05:10:53;;;;;;;;;;;;;;;1.67;96.97;95925.88;5001663;28;20388;-54
2021/01/14 05:13:19;;;;;;;;;;;;;;;1.69;96.33;95928.38;4995640;28;20308;-51
2021/01/14 05:15:46;;;;;;;;;;;;;;;1.66;95.00;95926.81;5005008;28;19965;-51
2021/01/14 05:18:14;;;;;;;;;;;;;;;1.67;94.45;95925.88;4999600;28;19953;-51
2021/01/14 05:20:41;;;;;;;;;;;;;;;1.70;94.38;95928.28;4996081;28;20204;-54
2021/01/14 05:23:07;;;;;;;;;;;;;;;1.65;91.90;95923.41;5001175;28;19953;-54
2021/01/14 05:25:34;;;;;;;;;;;;;;;1.70;92.85;95938.66;5003189;28;20024;-54
2021/01/14 05:28:10;;;;;;;;;;;;;;;1.64;92.41;95929.50;4998538;28;19983;-53
2021/01/14 05:30:39;;;;;;;;;;;;;;;1.63;92.16;95942.63;5008274;28;19948;-53
2021/01/14 05:33:12;;;;;;;;;;;;;;;1.66;91.67;95955.41;4993832;28;19933;-51
2021/01/14 05:35:47;;;;;;;;;;;;;;;1.70;90.97;95958.63;5001368;28;19978;-57
2021/01/14 05:38:21;;;;;;;;;;;;;;;1.67;90.69;95967.47;4997190;28;20065;-54
2021/01/14 05:43:30;;;;;;;;;;;;;;;1.64;88.70;95967.66;4992705;28;19926;-53
2021/01/14 05:46:11;;;;;;;;;;;;;;;1.64;89.24;95968.50;5007390;28;19926;-54
2021/01/14 05:48:39;;;;;;;;;;;;;;;1.61;88.91;95988.66;4996371;28;19925;-51
2021/01/14 05:51:08;;;;;;;;;;;;;;;1.55;87.66;95969.13;4999573;28;19930;-50
2021/01/14 05:53:35;;;;;;;;;;;;;;;1.62;87.08;95972.16;4998502;28;20051;-48
2021/01/14 05:56:02;;;;;;;;;;;;;;;1.54;86.81;95985.63;4996409;28;19933;-50
2021/01/14 05:58:29;;;;;;;;;;;;;;;1.58;87.20;95991.44;5002031;28;19953;-54
2021/01/14 06:00:55;;;;;;;;;;;;;;;1.57;84.69;95992.41;5004712;28;19926;-50
2021/01/14 06:03:23;;;;;;;;;;;;;;;1.58;84.34;96005.31;4999815;28;20476;-50
2021/01/14 06:05:49;;;;;;;;;;;;;;;1.49;83.38;96021.47;4993821;28;20024;-51
2021/01/14 06:08:19;;;;;;;;;;;;;;;1.48;83.85;96024.16;4998013;28;20388;-50
2021/01/14 06:10:46;;;;;;;;;;;;;;;1.45;83.33;96003.59;4998153;28;19925;-54
2021/01/14 06:13:13;;;;;;;;;;;;;;;1.35;83.63;95996.41;5002160;28;19926;-51
2021/01/14 06:15:40;;;;;;;;;;;;;;;1.45;83.00;96001.84;4996266;28;19971;-52
2021/01/14 06:18:08;;;;;;;;;;;;;;;1.42;84.89;95999.44;5002971;28;19941;-48
2021/01/14 06:20:36;;;;;;;;;;;;;;;1.38;85.50;96017.00;4996647;28;19929;-51
2021/01/14 06:23:02;;;;;;;;;;;;;;;1.37;86.58;96009.28;4999245;28;20351;-48
2021/01/14 06:25:30;;;;;;;;;;;;;;;1.32;86.87;96013.94;4999272;28;19926;-52
2021/01/14 06:27:56;;;;;;;;;;;;;;;1.31;87.63;96009.69;5002950;28;19933;-48
2021/01/14 06:30:23;;;;;;;;;;;;;;;1.34;89.34;96025.91;4993871;28;19926;-53
2021/01/14 06:32:59;;;;;;;;;;;;;;;1.31;91.13;96022.69;5004113;28;19926;-49
2021/01/14 06:35:26;;;;;;;;;;;;;;;1.29;91.25;96027.13;4990534;28;19932;-51
2021/01/14 06:37:54;;;;;;;;;;;;;;;1.35;91.58;96045.75;4995768;28;19925;-49
2021/01/14 06:40:20;;;;;;;;;;;;;;;1.26;91.20;96048.09;4995002;28;20483;-50
2021/01/14 06:42:48;;;;;;;;;;;;;;;1.23;92.07;96043.94;5000586;28;20365;-53
2021/01/14 06:45:15;;;;;;;;;;;;;;;1.31;92.35;96046.06;5004126;28;19979;-52
2021/01/14 06:47:42;;;;;;;;;;;;;;;1.27;92.46;96029.81;4999773;28;19926;-50
2021/01/14 06:50:13;;;;;;;;;;;;;;;1.32;93.73;96047.72;5000808;28;19972;-52
2021/01/14 06:52:41;;;;;;;;;;;;;;;1.20;94.47;96046.72;4995925;28;19926;-51
2021/01/14 06:55:08;;;;;;;;;;;;;;;1.14;93.82;96052.31;4997723;28;19930;-48
2021/01/14 06:57:36;;;;;;;;;;;;;;;1.22;94.73;96057.84;4997960;28;19925;-49
2021/01/14 07:00:05;;;;;;;;;;;;;;;1.24;94.21;96065.53;4990815;28;19933;-54
2021/01/14 07:02:48;;;;;;;;;;;;;;;1.24;93.24;96070.72;5012104;28;19925;-55
2021/01/14 07:05:19;;;;;;;;;;;;;;;1.21;92.84;96068.34;4993304;28;20564;-54
2021/01/14 07:07:47;;;;;;;;;;;;;;;1.16;91.78;96085.03;4992909;28;19925;-52
2021/01/14 07:10:14;;;;;;;;;;;;;;;1.32;90.25;96095.31;5006004;28;20036;-53
2021/01/14 07:12:42;;;;;;;;;;;;;;;1.30;89.96;96096.31;4999013;28;20413;-53
2021/01/14 07:15:10;;;;;;;;;;;;;;;1.27;87.96;96107.72;4991627;28;19925;-51
2021/01/14 07:17:39;;;;;;;;;;;;;;;1.29;85.96;96097.25;5001772;28;19926;-48
2021/01/14 07:20:08;;;;;;;;;;;;;;;1.26;85.34;96106.06;4998728;28;20455;-54
2021/01/14 07:22:39;;;;;;;;;;;;;;;1.23;85.80;96105.44;4993922;28;19972;-55
2021/01/14 07:25:06;;;;;;;;;;;;;;;1.16;85.36;96108.41;5000884;28;20003;-50
2021/01/14 07:27:34;;;;;;;;;;;;;;;1.20;84.39;96111.66;4995844;28;20040;-55
2021/01/14 07:30:00;;;;;;;;;;;;;;;1.17;84.41;96110.09;4999646;28;19992;-48
2021/01/14 07:32:46;;;;;;;;;;;;;;;1.21;83.88;96120.28;4991195;28;19926;-56
2021/01/14 07:35:25;;;;;;;;;;;;;;;1.16;84.54;96123.16;5005160;28;20406;-50
2021/01/14 07:37:52;;;;;;;;;;;;;;;1.09;84.92;96138.28;4993935;28;19926;-52
2021/01/14 07:40:27;;;;;;;;;;;;;;;1.10;86.23;96150.34;4999491;28;19925;-54
2021/01/14 07:42:54;;;;;;;;;;;;;;;1.06;86.17;96153.22;5003013;28;19988;-56
2021/01/14 07:45:22;;;;;;;;;;;;;;;1.12;86.20;96161.47;4993999;28;19926;-51
2021/01/14 07:47:49;;;;;;;;;;;;;;;1.12;85.71;96152.84;4998619;28;19987;-56
2021/01/14 07:50:19;;;;;;;;;;;;;;;1.14;86.19;96158.78;5000187;28;20246;-50
2021/01/14 07:52:47;;;;;;;;;;;;;;;1.19;86.57;96160.16;4991019;28;19977;-49
2021/01/14 07:55:23;;;;;;;;;;;;;;;1.18;86.35;96157.66;5006100;28;19935;-50
2021/01/14 07:57:50;;;;;;;;;;;;;;;1.12;85.70;96148.47;4997632;28;20536;-50
2021/01/14 08:00:20;;;;;;;;;;;;;;;1.14;84.99;96153.59;4995133;28;19929;-54
2021/01/14 08:03:06;;;;;;;;;;;;;;;1.16;85.61;96162.94;4999557;28;19926;-55
2021/01/14 08:05:39;;;;;;;;;;;;;;;1.24;85.73;96172.03;4991266;28;20367;-54
2021/01/14 08:08:21;;;;;;;;;;;;;;;1.28;85.07;96182.16;4994473;28;19926;-50
2021/01/14 08:10:49;;;;;;;;;;;;;;;1.36;83.91;96186.84;4994417;28;19980;-50
2021/01/14 08:13:16;;;;;;;;;;;;;;;1.45;83.74;96206.25;4998766;28;19932;-50
2021/01/14 08:15:42;;;;;;;;;;;;;;;1.55;83.06;96202.13;5000018;28;19933;-53
2021/01/14 08:18:12;;;;;;;;;;;;;;;1.59;83.24;96208.81;4991339;28;19926;-55
2021/01/14 08:20:39;;;;;;;;;;;;;;;1.56;83.25;96219.41;4988456;28;19929;-58
2021/01/14 08:23:08;;;;;;;;;;;;;;;1.64;83.97;96225.78;4995025;28;20289;-55
2021/01/14 08:25:34;;;;;;;;;;;;;;;1.67;83.57;96220.41;4995804;28;19932;-56
2021/01/14 08:28:05;;;;;;;;;;;;;;;1.60;83.55;96221.72;4995044;28;21300;-53
2021/01/14 08:30:33;;;;;;;;;;;;;;;1.60;84.21;96216.50;4990497;28;20427;-53
2021/01/14 08:33:06;;;;;;;;;;;;;;;1.66;84.29;96229.13;4991872;28;19934;-49
2021/01/14 08:35:33;;;;;;;;;;;;;;;1.73;84.19;96232.19;4972976;28;19929;-48
2021/01/14 08:38:00;;;;;;;;;;;;;;;1.74;84.83;96235.59;4997630;28;19925;-54
2021/01/14 08:40:28;;;;;;;;;;;;;;;1.63;83.51;96238.88;5002248;28;20368;-55
2021/01/14 08:43:02;;;;;;;;;;;;;;;1.61;84.17;96243.31;4999108;28;19983;-53
2021/01/14 08:45:31;;;;;;;;;;;;;;;1.54;84.19;96244.63;4992062;28;19942;-54
2021/01/14 08:48:03;;;;;;;;;;;;;;;1.40;84.96;96245.47;4999162;28;19926;-52
2021/01/14 08:50:37;;;;;;;;;;;;;;;1.46;84.67;96245.13;4995038;28;19925;-48
2021/01/14 08:53:04;;;;;;;;;;;;;;;1.46;83.09;96244.28;4989368;28;20451;-55
2021/01/14 08:55:32;;;;;;;;;;;;;;;1.46;83.42;96247.72;4993994;28;19981;-53
2021/01/14 08:58:00;;;;;;;;;;;;;;;1.50;82.99;96262.19;5004545;28;19932;-53
2021/01/14 09:00:27;;;;;;;;;;;;;;;1.45;83.29;96264.25;4996335;28;19961;-56
2021/01/14 09:02:54;;;;;;;;;;;;;;;1.41;83.86;96268.78;4995934;28;19926;-56
2021/01/14 09:05:21;;;;;;;;;;;;;;;1.37;84.21;96275.06;4997155;28;19926;-52
2021/01/14 09:08:04;;;;;;;;;;;;;;;1.42;81.90;96280.00;4995104;28;19929;-50
2021/01/14 09:10:47;;;;;;;;;;;;;;;1.43;82.80;96276.47;4994238;28;20376;-53
2021/01/14 09:13:15;;;;;;;;;;;;;;;1.57;83.61;96292.06;4995825;28;19926;-50
2021/01/14 09:15:42;;;;;;;;;;;;;;;1.53;83.03;96292.34;4991080;28;20414;-49
2021/01/14 09:18:11;;;;;;;;;;;;;;;1.50;82.80;96285.56;4996088;28;20384;-52
2021/01/14 09:20:40;;;;;;;;;;;;;;;1.51;82.47;96300.22;4995002;28;19925;-50
2021/01/14 09:23:17;;;;;;;;;;;;;;;1.53;82.85;96292.34;4995332;28;19925;-48
2021/01/14 09:25:44;;;;;;;;;;;;;;;1.46;83.43;96298.84;4999534;28;20351;-52
2021/01/14 09:28:11;;;;;;;;;;;;;;;1.43;83.26;96305.06;5001345;28;19940;-52
2021/01/14 09:30:38;;;;;;;;;;;;;;;1.46;82.47;96304.88;4997363;28;20282;-51
2021/01/14 09:33:24;;;;;;;;;;;;;;;1.31;82.65;96319.63;4991399;28;19948;-50
2021/01/14 09:38:48;;;;;;;;;;;;;;;1.29;80.72;96331.03;4998454;28;19960;-54
2021/01/14 09:41:23;;;;;;;;;;;;;;;1.35;80.20;96339.28;4997744;28;20191;-53
2021/01/14 09:43:53;;;;;;;;;;;;;;;1.30;80.15;96338.72;5002973;28;19926;-54
2021/01/14 09:46:20;;;;;;;;;;;;;;;1.47;79.24;96342.09;4995888;28;19929;-55
2021/01/14 09:48:48;;;;;;;;;;;;;;;1.38;80.40;96352.09;5003069;28;19933;-53
2021/01/14 09:51:15;;;;;;;;;;;;;;;1.42;80.83;96355.34;5000846;28;19934;-52
2021/01/14 09:53:42;;;;;;;;;;;;;;;1.48;80.42;96355.00;5000503;28;19965;-53
2021/01/14 09:56:10;;;;;;;;;;;;;;;1.48;80.26;96364.53;4995345;28;20392;-57
2021/01/14 09:58:36;;;;;;;;;;;;;;;1.60;80.03;96362.03;5000540;28;19934;-52
2021/01/14 10:01:03;;;;;;;;;;;;;;;1.64;79.85;96360.09;5000729;28;19961;-55
2021/01/14 10:03:30;;;;;;;;;;;;;;;1.74;80.04;96360.38;4996428;28;19926;-55
2021/01/14 10:06:01;;;;;;;;;;;;;;;1.78;81.18;96354.88;4994978;28;20400;-52
2021/01/14 10:08:48;;;;;;;;;;;;;;;1.81;80.34;96343.47;5000374;28;20011;-49
2021/01/14 10:11:15;;;;;;;;;;;;;;;1.88;78.91;96340.41;4996754;28;19933;-52
2021/01/14 10:13:52;;;;;;;;;;;;;;;1.80;79.35;96358.25;4996299;28;19933;-52
2021/01/14 10:16:19;;;;;;;;;;;;;;;1.72;79.72;96360.50;5000078;28;20471;-48
2021/01/14 10:18:46;;;;;;;;;;;;;;;1.78;78.74;96361.84;4997282;28;19930;-50
2021/01/14 10:21:14;;;;;;;;;;;;;;;1.77;77.99;96360.19;4999463;28;19972;-53
2021/01/14 10:23:41;;;;;;;;;;;;;;;1.69;80.20;96362.41;5004154;28;19929;-48
2021/01/14 10:26:08;;;;;;;;;;;;;;;1.73;78.19;96364.75;4991416;28;19973;-51
2021/01/14 10:28:44;;;;;;;;;;;;;;;1.71;75.68;96371.78;4994577;28;20410;-53
2021/01/14 10:31:11;;;;;;;;;;;;;;;1.82;74.75;96374.56;4997963;28;19926;-55
2021/01/14 10:33:37;;;;;;;;;;;;;;;1.53;74.84;96381.53;4998746;28;20019;-49
2021/01/14 10:36:04;;;;;;;;;;;;;;;1.46;75.10;96379.41;4998380;28;19960;-52
2021/01/14 10:38:32;;;;;;;;;;;;;;;1.45;76.23;96382.94;4997936;28;20399;-51
2021/01/14 10:40:59;;;;;;;;;;;;;;;1.42;75.20;96383.94;5002443;28;19925;-52
2021/01/14 10:43:34;;;;;;;;;;;;;;;1.45;74.93;96388.13;4999964;28;19925;-55
2021/01/14 10:46:03;;;;;;;;;;;;;;;1.52;74.69;96387.66;5002638;28;19926;-54
2021/01/14 10:48:35;;;;;;;;;;;;;;;1.60;73.65;96388.03;4996589;28;20335;-52
2021/01/14 10:51:02;;;;;;;;;;;;;;;1.83;73.73;96391.03;5010116;28;19936;-51
2021/01/14 10:53:29;;;;;;;;;;;;;;;1.77;73.82;96391.41;4996113;28;19980;-53
2021/01/14 10:56:02;;;;;;;;;;;;;;;1.81;73.18;96395.47;4999504;28;19925;-53
2021/01/14 10:58:54;;;;;;;;;;;;;;;1.86;73.50;96389.06;5001485;28;20049;-49
2021/01/14 11:01:21;;;;;;;;;;;;;;;1.61;71.88;96405.28;4996347;28;20566;-53
2021/01/14 11:03:47;;;;;;;;;;;;;;;1.56;72.00;96406.50;4998491;28;20017;-52
2021/01/14 11:06:27;;;;;;;;;;;;;;;1.57;71.99;96401.22;4994363;28;19935;-56
2021/01/14 11:08:57;;;;;;;;;;;;;;;1.45;71.74;96401.13;4995325;28;19996;-53
2021/01/14 11:11:25;;;;;;;;;;;;;;;1.40;72.49;96397.00;4999589;28;19925;-53
2021/01/14 11:13:52;;;;;;;;;;;;;;;1.45;74.11;96399.34;4991249;28;19929;-54
2021/01/14 11:16:20;;;;;;;;;;;;;;;1.26;74.04;96389.19;4994918;28;19932;-48
2021/01/14 11:18:46;;;;;;;;;;;;;;;1.34;73.13;96396.53;4994904;28;20025;-51
2021/01/14 11:21:14;;;;;;;;;;;;;;;1.47;73.48;96397.47;4994158;28;19926;-49
2021/01/14 11:23:40;;;;;;;;;;;;;;;1.33;71.75;96392.25;4996993;28;19960;-49
2021/01/14 11:26:08;;;;;;;;;;;;;;;1.31;72.65;96394.97;4994358;28;20023;-56
2021/01/14 11:28:38;;;;;;;;;;;;;;;1.38;71.40;96396.28;5001680;28;19936;-50
2021/01/14 11:31:05;;;;;;;;;;;;;;;1.38;70.73;96392.84;4997619;28;19954;-53
2021/01/14 11:33:33;;;;;;;;;;;;;;;1.43;70.94;96398.59;4992682;28;19925;-52
2021/01/14 11:36:00;;;;;;;;;;;;;;;1.40;70.95;96403.97;4991948;28;19925;-54
2021/01/14 11:38:27;;;;;;;;;;;;;;;1.46;70.66;96410.56;4994345;28;19926;-53
2021/01/14 11:40:53;;;;;;;;;;;;;;;1.67;71.23;96410.13;5001878;28;20434;-51
2021/01/14 11:43:20;;;;;;;;;;;;;;;1.83;71.31;96412.66;4994966;28;19932;-50
2021/01/14 11:45:48;;;;;;;;;;;;;;;1.98;71.42;96418.69;4999078;28;19933;-52
2021/01/14 11:48:15;;;;;;;;;;;;;;;2.21;72.30;96412.09;4992563;28;19929;-53
2021/01/14 11:50:42;;;;;;;;;;;;;;;2.00;71.20;96411.66;5000906;28;19956;-54
2021/01/14 11:53:09;;;;;;;;;;;;;;;2.12;72.11;96408.28;4999610;28;19921;-54
2021/01/14 11:55:36;;;;;;;;;;;;;;;2.24;70.95;96416.28;4995793;28;20088;-51
2021/01/14 11:58:20;;;;;;;;;;;;;;;1.93;71.61;96415.53;4996964;28;19932;-53
2021/01/14 12:00:48;;;;;;;;;;;;;;;1.71;72.35;96417.75;5001709;28;19996;-52
2021/01/14 12:03:14;;;;;;;;;;;;;;;1.90;73.45;96423.53;4994924;28;20056;-55
2021/01/14 12:05:42;;;;;;;;;;;;;;;1.79;72.83;96428.50;4994611;28;19926;-56
2021/01/14 12:08:09;;;;;;;;;;;;;;;1.72;72.11;96428.06;4992724;28;20391;-52
2021/01/14 12:10:35;;;;;;;;;;;;;;;1.80;72.99;96428.44;4993379;28;24697;-55
2021/01/14 12:13:41;;;;;;;;;;;;;;;1.91;73.48;96422.59;4993694;28;19922;-49
2021/01/14 12:16:09;;;;;;;;;;;;;;;1.89;73.45;96417.50;5002428;28;19941;-53
2021/01/14 12:18:36;;;;;;;;;;;;;;;1.95;73.71;96416.28;4989835;28;20057;-52
2021/01/14 12:21:03;;;;;;;;;;;;;;;2.01;71.72;96417.69;4992452;28;19929;-49
2021/01/14 12:23:30;;;;;;;;;;;;;;;2.13;73.41;96417.78;4992084;28;20522;-52
2021/01/14 12:25:57;;;;;;;;;;;;;;;1.96;74.49;96409.31;4998950;28;19934;-54
2021/01/14 12:28:24;;;;;;;;;;;;;;;1.85;75.62;96413.38;4991700;28;20311;-51
2021/01/14 12:30:51;;;;;;;;;;;;;;;1.63;74.87;96413.00;4997522;28;19995;-48
2021/01/14 12:33:18;;;;;;;;;;;;;;;1.61;75.45;96413.09;4996337;28;19926;-51
2021/01/14 12:35:45;;;;;;;;;;;;;;;1.56;75.75;96411.69;5000341;28;19952;-52
2021/01/14 12:38:12;;;;;;;;;;;;;;;1.58;76.62;96418.50;4990582;28;19926;-52
2021/01/14 12:40:39;;;;;;;;;;;;;;;1.24;77.10;96414.44;4994751;28;19932;-56
2021/01/14 12:43:07;;;;;;;;;;;;;;;1.20;76.96;96415.50;4996263;28;20368;-55
2021/01/14 12:45:34;;;;;;;;;;;;;;;1.04;77.40;96407.78;4996906;28;19937;-55
2021/01/14 12:48:01;;;;;;;;;;;;;;;1.05;76.94;96399.06;4990196;28;20382;-54
2021/01/14 12:50:28;;;;;;;;;;;;;;;1.02;76.90;96406.19;5000616;28;19925;-48
2021/01/14 12:52:56;;;;;;;;;;;;;;;1.09;76.95;96408.34;4994012;28;19973;-48